This is the latest recevied weather packets stored in our database for station/object BMCB-38. If no packets are shown the sender has not sent any weather packets the latest 10 day(s).
| Time | Temp. | Humidity | Pressure | Rain* | Wind** | Luminosity | Snow |
|---|---|---|---|---|---|---|---|
| 1777593037 | 10.56° C | 38% | 1024.8 hPa | 0 mm | - | 0 W/m² | - |
| 1777585837 | 12.78° C | 30% | 1025 hPa | 0 mm | - | 0 W/m² | - |
| 1777581038 | 14.44° C | 27% | 1024.5 hPa | 0 mm | - | 0 W/m² | - |
| 1777578038 | 15.56° C | 25% | 1024 hPa | 0 mm | - | 0 W/m² | - |
| 1777576237 | 16.11° C | 24% | 1023.7 hPa | 0 mm | - | 0 W/m² | - |
| 1777569636 | 18.89° C | 20% | 1022.8 hPa | 0 mm | - | 174 W/m² | - |
| 1777568439 | 18.89° C | 20% | 1022.8 hPa | 0 mm | - | 226 W/m² | - |
| 1777567240 | 19.44° C | 20% | 1022.8 hPa | 0 mm | - | 282 W/m² | - |
| 1777566038 | 19.44° C | 20% | 1022.7 hPa | 0 mm | - | 338 W/m² | - |
| 1777561232 | 19.44° C | 20% | 1022.7 hPa | 0 mm | - | 542 W/m² | - |
| 1777560035 | 19.44° C | 20% | 1022.8 hPa | 0 mm | - | 588 W/m² | - |
| 1777553438 | 18.89° C | 26% | 1023.7 hPa | 0 mm | - | 760 W/m² | - |
| 1777546836 | 17.22° C | 25% | 1024.7 hPa | 0 mm | - | 770 W/m² | - |
| 1777546237 | 17.22° C | 26% | 1024.7 hPa | 0 mm | - | 764 W/m² | - |
| 1777540234 | 14.44° C | 33% | 1025.3 hPa | 0 mm | - | 624 W/m² | - |
| 1777539034 | 13.89° C | 35% | 1025.5 hPa | 0 mm | - | 582 W/m² | - |
| 1777536037 | 12.78° C | 40% | 1025.8 hPa | 0 mm | - | 466 W/m² | - |
| 1777530640 | 8.89° C | 49% | 1026.1 hPa | 0 mm | - | 60 W/m² | - |
| 1777521035 | 7.22° C | 54% | 1025.6 hPa | 0 mm | - | 0 W/m² | - |
| 1777511420 | 9.44° C | 50% | 1025.4 hPa | 0 mm | - | 0 W/m² | - |
| 1777509034 | 10° C | 49% | 1025.3 hPa | 0 mm | - | 0 W/m² | - |
| 1777508435 | 10° C | 48% | 1025.3 hPa | 0 mm | - | 0 W/m² | - |
| 1777506636 | 10.56° C | 46% | 1025.3 hPa | 0 mm | - | 0 W/m² | - |
| 1777495237 | 13.89° C | 35% | 1024 hPa | 0 mm | - | 0 W/m² | - |
| 1777479635 | 18.33° C | 28% | 1022 hPa | 0 mm | - | 330 W/m² | - |
* Rain latest hour (hover to see other rain measurements)
** Current wind speed in m/s (hover to see current wind gust speed)